Brookton, Maine
Current Conditions -  °F | °C
As of 6:27 PM on Saturday 25 Oct 2014 (Local Time) from KHUL Reporting Station
Overcast Overcast  
Wind Chill: 39°   Ceiling: 5000
Heat Index: 42°   Visibility: 10mi
Dew Point: 40°   Wind: 5mph
Humidity: 92%   Direction: 220°SW
Pressure: 29.55"   Gusts: NA
Location:  45.53°N, 67.76°W
Report Text: KHUL 252227Z AUTO 22004KT 10SM SCT007 OVC050 06/04 A2955 RMK AO2 T00560044
Loading
Personal Weather Stations






























Interactive Weather Map
Tropical Storm Tracking
New forecast layout! Learn more

10-Day Weather Forecast

Advertisements
Track Severe Weather on mobile